Lisbon, Portugal

3:27 PM WET on 三月 25, 2017 (GMT +0000)
Lisbon | | Change Station

高度 404 ft 38.78 °N, 9.13 °W | Updated 27 minutes ago

Mostly Cloudy
だいたい曇
57 °F
体感気温 57 °F
20
風 変数 風 から 南西

今日
高い -- | 低 -- °F
--% 降水確率
昨日
高い -- | 低 -- °F
Precip. -- インチ
気圧 29.83 インチ
視程 6.2 マイル
わずか 2800 ft
だいたい曇 3200 ft
露点温度 45 °F
湿度 63%
降水 0.00 インチ
積雪深 利用不可。
6:32 AM 6:53 PM
二十六夜, 8% visible
METAR LPPT 251500Z 23017KT 200V260 9999 FEW028 BKN032 14/07 Q1010
気圧 29.83 インチ
視程 6.2 マイル
わずか 2800 ft
だいたい曇 3200 ft
露点温度 45 °F
湿度 63%
降水 0.00 インチ
積雪深 利用不可。
6:32 AM 6:53 PM
二十六夜, 8% visible
METAR LPPT 251500Z 23017KT 200V260 9999 FEW028 BKN032 14/07 Q1010

Get Severe Weather Alerts

Thanks for signing up!

Be on the lookout for a verification email in your inbox.

You'll start receiving the daily forecast at 8 AM.

×

10-Day Weather Forecast

×

Almanac

天文

Mar. 25, 2017 入り
実時間
常用薄明
航海薄明
天文薄明
可視光の長さ
可照時間
Tomorrow will be .
, % of the Moon is Illuminated

今日の極値

Country Highs Country Lows

Community

WunderPhotos

Upload Photos

1,962,540 写真がアップロードされました!

WunderBlog® & News

Nearby

空気品質

  空気品質 大気質指数 汚染物質
Not available.

積雪深

Station Depth 高度

地震活動

Distance Mag. Time & Date
Minimum magnitude displayed is 2.5.

地震活動

Distance Mag. Time & Date
Minimum magnitude displayed is 2.5.

沿岸の水温

地名 気温

Stations

最寄りの気象観測所

観測所位置 温度 体感気温(寒さ) 露点温度 湿度 Precip. 高度 更新日時 タイプする